Time;durP1;ratioP1;P1;durP2;ratioP2;P2;SDS_P1;SDS_P2;PMS_P1;PMS_P2;Temp;Humidity;BMP_temperature;BMP_pressure;BME280_temperature;BME280_humidity;BME280_pressure;Samples;Min_cycle;Max_cycle;Signal;HPM_P1;HPM_P2
2023/07/18 00:00:38;;;;;;;10.95;4.38;;;15.30;99.90;;;;;;5068472;28;20045;-58
2023/07/18 00:03:05;;;;;;;12.35;4.10;;;15.20;99.90;;;;;;5060957;28;20047;-58
2023/07/18 00:05:31;;;;;;;14.25;3.67;;;15.20;99.90;;;;;;5073734;28;20055;-58
2023/07/18 00:07:57;;;;;;;9.93;4.25;;;15.20;99.90;;;;;;5063671;28;20060;-58
2023/07/18 00:10:23;;;;;;;9.85;3.35;;;15.10;99.90;;;;;;5068514;28;20059;-58
2023/07/18 00:12:49;;;;;;;8.88;3.58;;;15.10;99.90;;;;;;5060470;28;20041;-57
2023/07/18 00:15:16;;;;;;;10.60;4.15;;;15.10;99.90;;;;;;5066977;28;20118;-58
2023/07/18 00:17:43;;;;;;;11.90;3.75;;;15.10;99.90;;;;;;5059971;28;20037;-58
2023/07/18 00:20:12;;;;;;;10.93;3.80;;;15.00;99.90;;;;;;5067352;28;20058;-59
2023/07/18 00:22:41;;;;;;;7.75;3.22;;;15.00;99.90;;;;;;5058460;28;20103;-60
2023/07/18 00:25:13;;;;;;;13.43;4.07;;;15.00;99.90;;;;;;5069983;28;20072;-59
2023/07/18 00:27:40;;;;;;;9.73;3.95;;;15.00;99.90;;;;;;5062968;28;20075;-58
2023/07/18 00:30:12;;;;;;;10.30;3.47;;;14.90;99.90;;;;;;5069139;28;20110;-58
2023/07/18 00:32:38;;;;;;;11.65;4.28;;;14.90;99.90;;;;;;5061976;28;20049;-58
2023/07/18 00:35:04;;;;;;;7.97;3.67;;;14.80;99.90;;;;;;5068227;28;20041;-58
2023/07/18 00:37:31;;;;;;;9.77;3.70;;;14.90;99.90;;;;;;5068187;28;20033;-58
2023/07/18 00:39:57;;;;;;;12.23;4.03;;;14.80;99.90;;;;;;5069265;28;20048;-59
2023/07/18 00:42:23;;;;;;;11.02;4.10;;;14.90;99.90;;;;;;5067458;28;20055;-59
2023/07/18 00:44:50;;;;;;;9.77;3.72;;;14.80;99.90;;;;;;5068772;28;20053;-59
2023/07/18 00:47:17;;;;;;;12.15;3.88;;;14.90;99.90;;;;;;5069565;28;20578;-58
2023/07/18 00:49:43;;;;;;;15.38;4.93;;;14.90;99.90;;;;;;5067731;28;20048;-59
2023/07/18 00:52:10;;;;;;;11.55;4.13;;;14.90;99.90;;;;;;5067890;28;20056;-59
2023/07/18 00:54:37;;;;;;;10.10;3.95;;;15.00;99.90;;;;;;5072823;28;20059;-59
2023/07/18 00:57:03;;;;;;;13.90;4.03;;;14.90;99.90;;;;;;5065087;28;20044;-59
2023/07/18 00:59:30;;;;;;;14.43;4.60;;;14.90;99.90;;;;;;5066558;28;20109;-59
2023/07/18 01:01:56;;;;;;;15.45;3.92;;;14.80;99.90;;;;;;5070329;28;20041;-59
2023/07/18 01:04:22;;;;;;;14.35;4.50;;;14.80;99.90;;;;;;5065954;28;20076;-59
2023/07/18 01:06:48;;;;;;;12.35;5.28;;;14.90;99.90;;;;;;5076629;28;20048;-59
2023/07/18 01:09:14;;;;;;;14.15;4.20;;;14.90;99.90;;;;;;5067254;28;20644;-59
2023/07/18 01:11:39;;;;;;;13.45;4.53;;;14.90;99.90;;;;;;5067961;28;20041;-58
2023/07/18 01:14:05;;;;;;;15.23;4.85;;;14.90;99.90;;;;;;5062189;28;20048;-59
2023/07/18 01:16:31;;;;;;;12.75;4.43;;;14.80;99.90;;;;;;5076493;28;20080;-59
2023/07/18 01:18:57;;;;;;;13.60;5.22;;;14.80;99.90;;;;;;5062527;28;20581;-56
2023/07/18 01:21:24;;;;;;;13.18;5.63;;;14.70;99.90;;;;;;5069061;28;20136;-59
2023/07/18 01:23:50;;;;;;;12.85;4.70;;;14.70;99.90;;;;;;5064511;28;20448;-59
2023/07/18 01:26:16;;;;;;;13.73;4.32;;;14.70;99.90;;;;;;5065642;28;20536;-59
2023/07/18 01:28:42;;;;;;;10.10;4.55;;;14.80;99.90;;;;;;5066241;28;20052;-59
2023/07/18 01:31:08;;;;;;;11.75;4.68;;;14.80;99.90;;;;;;5072588;28;20048;-59
2023/07/18 01:33:34;;;;;;;13.23;4.65;;;14.80;99.90;;;;;;5064895;28;20040;-59
2023/07/18 01:36:00;;;;;;;12.20;4.63;;;14.70;99.90;;;;;;5056512;28;20041;-58
2023/07/18 01:38:29;;;;;;;16.13;6.32;;;14.70;99.90;;;;;;5069527;28;20052;-59
2023/07/18 01:41:01;;;;;;;17.83;5.35;;;14.70;99.90;;;;;;5071564;28;20048;-59
2023/07/18 01:43:27;;;;;;;10.70;4.90;;;14.60;99.90;;;;;;5063042;28;20033;-59
2023/07/18 01:46:01;;;;;;;14.27;5.00;;;14.60;99.90;;;;;;5062124;28;20468;-59
2023/07/18 01:48:26;;;;;;;14.38;5.35;;;14.70;99.90;;;;;;5062141;28;20055;-59
2023/07/18 01:50:53;;;;;;;15.57;5.30;;;14.80;99.90;;;;;;5062211;28;20041;-59
2023/07/18 01:53:19;;;;;;;12.93;5.22;;;14.80;99.90;;;;;;5062615;28;20052;-59
2023/07/18 01:55:45;;;;;;;13.75;5.20;;;14.70;99.90;;;;;;5064378;28;20049;-59
2023/07/18 01:58:10;;;;;;;9.93;4.22;;;14.60;99.90;;;;;;5070090;28;20083;-59
2023/07/18 02:00:36;;;;;;;12.90;4.90;;;14.70;99.90;;;;;;5067748;28;20044;-59
2023/07/18 02:03:02;;;;;;;13.50;4.78;;;14.70;99.90;;;;;;5058461;28;20076;-59
2023/07/18 02:05:30;;;;;;;14.30;4.72;;;14.70;99.90;;;;;;5068940;28;20497;-59
2023/07/18 02:07:57;;;;;;;12.38;4.40;;;14.80;99.90;;;;;;5066666;28;20041;-59
2023/07/18 02:10:24;;;;;;;12.95;4.40;;;14.70;99.90;;;;;;5066372;28;20052;-59
2023/07/18 02:12:54;;;;;;;13.20;4.78;;;14.80;99.90;;;;;;5064679;28;20045;-59
2023/07/18 02:15:21;;;;;;;13.18;5.00;;;14.80;99.90;;;;;;5071559;28;20060;-59
2023/07/18 02:17:47;;;;;;;15.30;4.63;;;14.70;99.90;;;;;;5066868;28;20029;-59
2023/07/18 02:20:14;;;;;;;15.57;5.00;;;14.70;99.90;;;;;;5073728;28;20048;-59
2023/07/18 02:22:41;;;;;;;12.38;4.72;;;14.60;99.90;;;;;;5063202;28;20048;-59
2023/07/18 02:25:08;;;;;;;13.52;4.60;;;14.70;99.90;;;;;;5074203;28;20040;-59
2023/07/18 02:27:40;;;;;;;11.70;4.43;;;14.70;99.90;;;;;;5061355;28;20041;-59
2023/07/18 02:30:09;;;;;;;13.07;5.05;;;14.70;99.90;;;;;;5073512;28;20033;-59
2023/07/18 02:32:35;;;;;;;14.15;4.75;;;14.60;99.90;;;;;;5063598;28;20044;-59
2023/07/18 02:35:01;;;;;;;14.93;4.38;;;14.60;99.90;;;;;;5067837;28;20061;-59
2023/07/18 02:37:27;;;;;;;12.75;4.97;;;14.50;99.90;;;;;;5072151;28;20052;-59
2023/07/18 02:39:53;;;;;;;17.65;5.35;;;14.50;99.90;;;;;;5067649;28;20045;-59
2023/07/18 02:42:19;;;;;;;11.90;4.05;;;14.50;99.90;;;;;;5068301;28;20483;-59
2023/07/18 02:44:45;;;;;;;13.48;5.60;;;14.60;99.90;;;;;;5069867;28;20063;-60
2023/07/18 02:47:11;;;;;;;14.75;4.82;;;14.60;99.90;;;;;;5070909;28;20097;-59
2023/07/18 02:49:37;;;;;;;15.30;5.07;;;14.60;99.90;;;;;;5073035;28;20051;-59
2023/07/18 02:52:05;;;;;;;13.90;4.72;;;14.70;99.90;;;;;;5064996;28;20033;-60
2023/07/18 02:54:31;;;;;;;14.02;4.75;;;14.70;99.90;;;;;;5070973;28;20048;-59
2023/07/18 02:56:58;;;;;;;15.88;6.43;;;14.70;99.90;;;;;;5067514;28;20076;-59
2023/07/18 02:59:24;;;;;;;13.32;4.30;;;14.70;99.90;;;;;;5067822;28;20044;-59
2023/07/18 03:01:50;;;;;;;15.73;4.80;;;14.70;99.90;;;;;;5071668;28;20037;-58
2023/07/18 03:04:19;;;;;;;12.73;4.47;;;14.70;99.90;;;;;;5067748;28;20615;-59
2023/07/18 03:06:53;;;;;;;17.90;4.40;;;14.60;99.90;;;;;;5068524;28;20407;-59
2023/07/18 03:09:19;;;;;;;14.98;5.22;;;14.60;99.90;;;;;;5065551;28;20071;-59
2023/07/18 03:11:46;;;;;;;17.85;5.45;;;14.60;99.90;;;;;;5067628;28;20045;-59
2023/07/18 03:14:12;;;;;;;15.35;5.75;;;14.50;99.90;;;;;;5065790;28;20115;-59
2023/07/18 03:16:38;;;;;;;14.45;5.00;;;14.60;99.90;;;;;;5067863;28;20099;-59
2023/07/18 03:19:05;;;;;;;16.40;4.88;;;14.50;99.90;;;;;;5063395;28;20045;-59
2023/07/18 03:21:31;;;;;;;14.20;4.57;;;14.60;99.90;;;;;;5069097;28;20390;-59
2023/07/18 03:23:57;;;;;;;16.38;5.50;;;14.50;99.90;;;;;;5045526;28;20101;-59
2023/07/18 03:26:23;;;;;;;15.45;5.03;;;14.60;99.90;;;;;;5071276;28;20045;-59
2023/07/18 03:28:49;;;;;;;13.43;4.82;;;14.60;99.90;;;;;;5063654;28;20095;-59
2023/07/18 03:31:14;;;;;;;13.93;4.90;;;14.60;99.90;;;;;;5070905;28;20049;-59
2023/07/18 03:33:41;;;;;;;13.98;4.85;;;14.60;99.90;;;;;;5065358;28;20059;-59
2023/07/18 03:36:07;;;;;;;15.70;5.22;;;14.60;99.90;;;;;;5065184;28;20106;-59
2023/07/18 03:38:32;;;;;;;11.95;4.28;;;14.60;99.90;;;;;;5068789;28;20045;-58
2023/07/18 03:40:58;;;;;;;14.95;4.97;;;14.50;99.90;;;;;;5075834;28;20510;-59
2023/07/18 03:43:24;;;;;;;14.25;4.47;;;14.50;99.90;;;;;;5061794;28;20056;-59
2023/07/18 03:45:51;;;;;;;13.43;4.25;;;14.60;99.90;;;;;;5078234;28;20044;-59
2023/07/18 03:48:17;;;;;;;14.10;4.85;;;14.50;99.90;;;;;;5066655;28;20607;-59
2023/07/18 03:50:43;;;;;;;14.40;5.00;;;14.50;99.90;;;;;;5074519;28;20098;-59
2023/07/18 03:53:09;;;;;;;12.43;4.63;;;14.50;99.90;;;;;;5064174;28;20094;-59
2023/07/18 03:55:35;;;;;;;11.23;4.75;;;14.50;99.90;;;;;;5065141;28;20041;-59
2023/07/18 03:58:00;;;;;;;11.40;4.88;;;14.50;99.90;;;;;;5073746;28;20047;-59
2023/07/18 04:00:26;;;;;;;17.23;5.72;;;14.60;99.90;;;;;;5068003;28;20040;-59
2023/07/18 04:02:52;;;;;;;12.75;4.72;;;14.60;99.90;;;;;;5062523;28;20032;-59
2023/07/18 04:05:18;;;;;;;12.88;5.05;;;14.60;99.90;;;;;;5067044;28;20048;-59
2023/07/18 04:07:45;;;;;;;12.00;4.80;;;14.50;99.90;;;;;;5062510;28;20040;-58
2023/07/18 04:10:11;;;;;;;16.33;5.32;;;14.50;99.90;;;;;;5067774;28;20079;-59
2023/07/18 04:12:38;;;;;;;18.05;5.00;;;14.50;99.90;;;;;;5062199;28;20040;-58
2023/07/18 04:15:06;;;;;;;13.18;4.60;;;14.50;99.90;;;;;;5066640;28;20060;-59
2023/07/18 04:17:32;;;;;;;12.43;4.70;;;14.50;99.90;;;;;;5060325;28;20041;-59
2023/07/18 04:20:01;;;;;;;17.38;5.82;;;14.60;99.90;;;;;;5065642;28;20496;-58
2023/07/18 04:22:29;;;;;;;12.93;5.30;;;14.50;99.90;;;;;;5058904;28;20057;-59
2023/07/18 04:24:56;;;;;;;11.30;4.93;;;14.50;99.90;;;;;;5070944;28;20037;-59
2023/07/18 04:27:23;;;;;;;12.07;4.90;;;14.50;99.90;;;;;;5065276;28;20057;-59
2023/07/18 04:29:49;;;;;;;15.70;5.25;;;14.50;99.90;;;;;;5066524;28;20049;-59
2023/07/18 04:32:17;;;;;;;14.45;5.55;;;14.50;99.90;;;;;;5071520;28;20041;-59
2023/07/18 04:34:43;;;;;;;12.75;4.68;;;14.50;99.90;;;;;;5062513;28;20049;-59
2023/07/18 04:37:09;;;;;;;13.57;5.38;;;14.40;99.90;;;;;;5075670;28;20090;-59
2023/07/18 04:39:35;;;;;;;12.20;5.47;;;14.50;99.90;;;;;;5063895;28;20045;-59
2023/07/18 04:42:01;;;;;;;10.05;4.68;;;14.60;99.90;;;;;;5065945;28;20048;-59
2023/07/18 04:44:26;;;;;;;15.73;5.63;;;14.50;99.90;;;;;;5067444;28;20049;-59
2023/07/18 04:46:52;;;;;;;11.48;5.13;;;14.60;99.90;;;;;;5067772;28;20063;-59
2023/07/18 04:49:19;;;;;;;14.65;4.45;;;14.60;99.90;;;;;;5066410;28;20068;-59
2023/07/18 04:51:44;;;;;;;12.90;4.85;;;14.70;99.90;;;;;;5063502;28;20041;-60
2023/07/18 04:54:10;;;;;;;12.75;4.88;;;14.70;99.90;;;;;;5069574;28;20084;-59
2023/07/18 04:56:36;;;;;;;11.52;4.72;;;14.60;99.90;;;;;;5064104;28;20530;-59
2023/07/18 04:59:01;;;;;;;13.30;5.10;;;14.60;99.90;;;;;;5066190;28;20045;-58
2023/07/18 05:01:28;;;;;;;11.07;4.57;;;14.50;99.90;;;;;;5070827;28;20511;-59
2023/07/18 05:03:55;;;;;;;11.73;5.10;;;14.50;99.90;;;;;;5061879;28;20087;-59
2023/07/18 05:06:20;;;;;;;13.38;5.82;;;14.50;99.90;;;;;;5073100;28;20039;-58
2023/07/18 05:08:46;;;;;;;14.77;5.70;;;14.60;99.90;;;;;;5064182;28;20044;-59
2023/07/18 05:11:12;;;;;;;14.45;5.40;;;14.60;99.90;;;;;;5067251;28;20040;-58
2023/07/18 05:13:38;;;;;;;9.13;4.72;;;14.70;99.90;;;;;;5068495;28;20052;-58
2023/07/18 05:16:04;;;;;;;12.57;5.45;;;14.80;99.90;;;;;;5067768;28;20051;-58
2023/07/18 05:18:30;;;;;;;15.52;5.18;;;14.90;99.90;;;;;;5062506;28;20041;-58
2023/07/18 05:20:58;;;;;;;14.68;5.40;;;14.90;99.90;;;;;;5071313;28;20045;-58
2023/07/18 05:23:24;;;;;;;11.43;5.03;;;15.00;99.90;;;;;;5055590;28;20121;-58
2023/07/18 05:25:50;;;;;;;14.00;5.35;;;15.20;99.90;;;;;;5066704;28;20061;-58
2023/07/18 05:28:16;;;;;;;15.43;5.20;;;15.30;99.90;;;;;;5056581;28;20056;-58
2023/07/18 05:30:42;;;;;;;14.55;4.88;;;15.40;99.90;;;;;;5063732;28;20044;-59
2023/07/18 05:33:08;;;;;;;18.10;5.70;;;15.40;99.90;;;;;;5057917;28;20045;-59
2023/07/18 05:35:34;;;;;;;15.73;5.30;;;15.50;99.90;;;;;;5068535;28;20147;-66
2023/07/18 05:38:01;;;;;;;12.02;4.68;;;15.50;99.90;;;;;;5057519;28;20512;-60
2023/07/18 05:40:27;;;;;;;13.93;5.53;;;15.60;99.90;;;;;;5061297;28;20200;-63
2023/07/18 05:42:53;;;;;;;14.80;5.63;;;15.60;99.90;;;;;;5068490;28;20039;-59
2023/07/18 05:45:19;;;;;;;13.75;5.15;;;15.50;99.90;;;;;;5064547;28;20052;-59
2023/07/18 05:47:45;;;;;;;13.48;5.55;;;15.70;99.90;;;;;;5058419;28;20029;-59
2023/07/18 05:50:11;;;;;;;12.52;5.22;;;15.70;99.90;;;;;;5071921;28;20052;-59
2023/07/18 05:52:38;;;;;;;13.15;5.25;;;15.70;99.90;;;;;;5057912;28;20061;-59
2023/07/18 05:55:05;;;;;;;14.27;5.40;;;15.70;99.90;;;;;;5067946;28;20048;-58
2023/07/18 05:57:31;;;;;;;18.52;5.45;;;15.70;99.90;;;;;;5068899;28;20068;-59
2023/07/18 05:59:57;;;;;;;17.55;5.78;;;15.70;99.90;;;;;;5068312;28;20180;-58
2023/07/18 06:02:23;;;;;;;15.52;5.45;;;15.70;99.90;;;;;;5066766;28;20451;-58
2023/07/18 06:04:49;;;;;;;16.17;5.72;;;15.70;99.90;;;;;;5064919;28;20068;-59
2023/07/18 06:07:15;;;;;;;14.10;5.13;;;15.80;99.90;;;;;;5068733;28;20059;-58
2023/07/18 06:09:42;;;;;;;20.95;5.80;;;15.90;99.90;;;;;;5063722;28;20044;-59
2023/07/18 06:12:08;;;;;;;15.70;5.35;;;16.00;99.90;;;;;;5069960;28;20100;-59
2023/07/18 06:14:34;;;;;;;15.50;5.95;;;16.10;99.90;;;;;;5062807;28;20598;-58
2023/07/18 06:17:00;;;;;;;15.73;5.93;;;16.10;99.90;;;;;;5070602;28;20041;-59
2023/07/18 06:19:25;;;;;;;18.85;5.72;;;16.00;99.90;;;;;;5067263;28;20052;-58
2023/07/18 06:21:51;;;;;;;14.02;5.65;;;16.10;99.90;;;;;;5067104;28;20097;-59
2023/07/18 06:24:17;;;;;;;15.25;5.53;;;16.10;99.90;;;;;;5064533;28;20056;-59
2023/07/18 06:26:48;;;;;;;16.92;5.40;;;16.20;99.90;;;;;;5062179;28;20676;-59
2023/07/18 06:29:18;;;;;;;12.55;5.85;;;16.20;99.90;;;;;;5063835;28;20052;-59
2023/07/18 06:31:48;;;;;;;18.67;6.15;;;16.40;99.90;;;;;;5070877;28;20049;-57
2023/07/18 06:34:17;;;;;;;16.40;6.35;;;16.40;99.90;;;;;;5062769;28;20032;-56
2023/07/18 06:36:44;;;;;;;14.93;5.53;;;16.40;99.90;;;;;;5054397;28;20048;-57
2023/07/18 06:39:10;;;;;;;13.32;5.65;;;16.40;99.90;;;;;;5055293;28;20496;-57
2023/07/18 06:41:39;;;;;;;15.60;5.30;;;16.40;99.90;;;;;;5054020;28;20166;-57
2023/07/18 06:44:05;;;;;;;15.27;5.32;;;16.40;99.90;;;;;;5055654;28;20045;-57
2023/07/18 06:46:31;;;;;;;14.48;5.45;;;16.40;99.90;;;;;;5056389;28;20060;-57
2023/07/18 06:48:57;;;;;;;13.25;5.28;;;16.70;99.90;;;;;;5058506;28;20049;-57
2023/07/18 06:51:25;;;;;;;16.20;6.20;;;16.80;99.90;;;;;;5061288;28;20053;-57
2023/07/18 06:53:52;;;;;;;14.95;6.65;;;16.80;99.90;;;;;;5071041;28;20482;-59
2023/07/18 06:56:18;;;;;;;17.48;6.00;;;17.10;99.90;;;;;;5061452;28;20135;-59
2023/07/18 06:58:43;;;;;;;14.38;6.13;;;17.10;99.90;;;;;;5066125;28;20052;-59
2023/07/18 07:01:10;;;;;;;17.00;6.88;;;17.20;99.90;;;;;;5064821;28;20049;-59
2023/07/18 07:03:36;;;;;;;17.75;7.55;;;17.30;99.90;;;;;;5047524;28;20073;-59
2023/07/18 07:06:08;;;;;;;15.82;7.40;;;17.40;99.90;;;;;;5067867;28;20048;-59
2023/07/18 07:08:33;;;;;;;17.05;7.45;;;17.50;99.90;;;;;;5058731;28;20044;-59
2023/07/18 07:11:07;;;;;;;18.70;7.90;;;17.60;99.90;;;;;;5059082;28;20040;-59
2023/07/18 07:13:34;;;;;;;17.00;6.88;;;17.90;99.90;;;;;;5064087;28;20055;-59
2023/07/18 07:16:00;;;;;;;16.58;7.00;;;18.00;99.90;;;;;;5074034;28;20036;-59
2023/07/18 07:18:26;;;;;;;19.02;6.75;;;18.00;99.90;;;;;;5069492;28;20036;-59
2023/07/18 07:20:53;;;;;;;12.88;6.25;;;18.20;99.90;;;;;;5066852;28;20561;-59
2023/07/18 07:23:19;;;;;;;18.27;7.68;;;18.30;99.90;;;;;;5068192;28;20048;-59
2023/07/18 07:25:44;;;;;;;19.73;7.45;;;18.40;99.90;;;;;;5068706;28;20518;-59
2023/07/18 07:28:10;;;;;;;15.35;7.38;;;18.30;99.90;;;;;;5079148;28;20469;-56
2023/07/18 07:30:36;;;;;;;18.90;7.63;;;18.30;99.90;;;;;;5078612;28;20043;-59
2023/07/18 07:33:05;;;;;;;19.13;7.35;;;18.40;99.90;;;;;;5075037;28;20029;-59
2023/07/18 07:35:31;;;;;;;18.92;7.22;;;18.60;99.90;;;;;;5067202;28;20079;-59
2023/07/18 07:37:56;;;;;;;17.25;7.38;;;18.80;99.90;;;;;;5062740;28;20049;-60
2023/07/18 07:40:22;;;;;;;16.88;6.57;;;18.90;99.90;;;;;;5058157;28;20041;-60
2023/07/18 07:42:48;;;;;;;16.10;6.75;;;19.00;99.90;;;;;;5058651;28;20041;-58
2023/07/18 07:45:14;;;;;;;17.30;6.25;;;18.90;99.90;;;;;;5058852;28;20036;-59
2023/07/18 07:47:40;;;;;;;17.90;7.38;;;18.90;99.90;;;;;;5066597;28;20032;-59
2023/07/18 07:50:07;;;;;;;13.82;6.60;;;19.10;99.90;;;;;;5068777;28;20715;-58
2023/07/18 07:52:33;;;;;;;14.13;7.00;;;19.20;99.90;;;;;;5062597;28;20037;-59
2023/07/18 07:54:59;;;;;;;19.85;7.40;;;19.30;99.90;;;;;;5069871;28;20048;-59
2023/07/18 07:57:25;;;;;;;16.20;6.30;;;19.20;99.90;;;;;;5078020;28;20028;-59
2023/07/18 07:59:51;;;;;;;14.05;5.65;;;19.10;99.90;;;;;;5075900;28;20048;-59
2023/07/18 08:02:19;;;;;;;12.00;5.10;;;19.00;99.90;;;;;;5063555;28;20059;-59
2023/07/18 08:04:48;;;;;;;14.88;5.53;;;18.90;99.90;;;;;;5076461;28;20040;-58
2023/07/18 08:07:15;;;;;;;16.65;5.60;;;18.90;99.90;;;;;;5077436;28;20044;-59
2023/07/18 08:09:42;;;;;;;13.93;5.38;;;18.90;99.90;;;;;;5076920;28;20037;-59
2023/07/18 08:12:10;;;;;;;14.07;5.40;;;19.00;99.90;;;;;;5075803;28;20056;-59
2023/07/18 08:14:37;;;;;;;13.77;5.50;;;18.90;99.90;;;;;;5063142;28;20060;-59
2023/07/18 08:17:05;;;;;;;13.95;4.78;;;18.90;99.90;;;;;;5068125;28;20040;-58
2023/07/18 08:19:34;;;;;;;12.02;3.90;;;18.80;99.90;;;;;;5057943;28;20419;-58
2023/07/18 08:22:00;;;;;;;11.07;3.97;;;19.00;99.90;;;;;;5057263;28;20037;-59
2023/07/18 08:24:26;;;;;;;8.52;3.15;;;19.10;99.90;;;;;;5058265;28;20044;-59
2023/07/18 08:26:51;;;;;;;10.82;3.70;;;19.40;99.90;;;;;;5056813;28;20101;-59
2023/07/18 08:29:17;;;;;;;13.82;4.82;;;19.60;99.90;;;;;;5065184;28;20130;-59
2023/07/18 08:31:43;;;;;;;11.93;3.85;;;20.00;99.90;;;;;;5060857;28;20366;-57
2023/07/18 08:34:09;;;;;;;10.30;3.65;;;20.10;99.90;;;;;;5066517;28;20053;-59
2023/07/18 08:36:35;;;;;;;10.88;3.38;;;20.00;99.90;;;;;;5065632;28;20098;-59
2023/07/18 08:39:05;;;;;;;12.98;2.95;;;20.00;99.90;;;;;;5055904;28;20052;-58
2023/07/18 08:41:32;;;;;;;12.43;3.30;;;19.70;99.90;;;;;;5057128;28;20053;-59
2023/07/18 08:43:58;;;;;;;11.73;2.83;;;19.30;99.90;;;;;;5055458;28;20060;-59
2023/07/18 08:46:25;;;;;;;12.15;2.40;;;19.30;99.90;;;;;;5056667;28;20063;-59
2023/07/18 08:48:51;;;;;;;9.50;2.65;;;19.40;99.90;;;;;;5057257;28;20085;-58
2023/07/18 08:51:17;;;;;;;10.85;3.13;;;19.50;99.90;;;;;;5058116;28;20052;-58
2023/07/18 08:53:42;;;;;;;10.30;2.53;;;19.70;99.90;;;;;;5068193;28;20052;-58
2023/07/18 08:56:08;;;;;;;9.68;2.78;;;19.80;99.90;;;;;;5071162;28;20040;-58
2023/07/18 08:58:37;;;;;;;10.57;3.50;;;19.90;99.90;;;;;;5060992;28;20102;-59
2023/07/18 09:01:06;;;;;;;10.45;2.75;;;20.30;99.90;;;;;;5057332;28;20063;-58
2023/07/18 09:03:33;;;;;;;10.07;2.83;;;20.10;99.90;;;;;;5074159;28;20125;-60
2023/07/18 09:06:02;;;;;;;9.60;3.00;;;19.90;99.90;;;;;;5076401;28;20500;-59
2023/07/18 09:08:31;;;;;;;11.85;1.98;;;20.00;99.90;;;;;;5076155;28;20048;-59
2023/07/18 09:11:03;;;;;;;12.40;2.88;;;20.20;99.90;;;;;;5069878;28;20111;-59
2023/07/18 09:13:37;;;;;;;10.77;2.17;;;20.10;99.90;;;;;;5058056;28;20108;-59
2023/07/18 09:16:22;;;;;;;7.30;1.80;;;20.10;99.90;;;;;;5057058;28;20094;-59
2023/07/18 09:18:55;;;;;;;6.15;1.60;;;20.20;99.90;;;;;;5057924;28;20063;-59
2023/07/18 09:21:23;;;;;;;8.02;2.03;;;20.10;99.90;;;;;;5061667;28;20084;-59
2023/07/18 09:23:50;;;;;;;6.70;1.63;;;20.00;99.90;;;;;;5060272;28;20048;-59
2023/07/18 09:26:22;;;;;;;8.85;1.65;;;20.20;99.90;;;;;;5060191;28;20061;-59
2023/07/18 09:28:48;;;;;;;7.07;1.48;;;20.30;99.90;;;;;;5061802;28;20053;-60
2023/07/18 09:31:22;;;;;;;7.78;1.95;;;20.30;99.90;;;;;;5060578;28;20051;-59
2023/07/18 09:33:50;;;;;;;7.40;1.60;;;20.20;99.90;;;;;;5063116;28;20084;-59
2023/07/18 09:36:25;;;;;;;5.53;1.50;;;20.40;99.90;;;;;;5067270;28;20049;-59
2023/07/18 09:38:51;;;;;;;5.22;1.63;;;20.10;99.90;;;;;;5070552;28;20048;-59
2023/07/18 09:41:18;;;;;;;6.82;1.60;;;20.30;99.90;;;;;;5066383;28;20048;-59
2023/07/18 09:43:44;;;;;;;10.40;2.28;;;20.30;99.90;;;;;;5071344;28;20028;-59
2023/07/18 09:46:12;;;;;;;7.50;1.67;;;20.30;99.90;;;;;;5079192;28;20055;-59
2023/07/18 09:48:43;;;;;;;7.75;1.65;;;20.10;99.90;;;;;;5076646;28;20561;-58
2023/07/18 09:51:13;;;;;;;8.27;1.70;;;20.00;99.90;;;;;;5078150;28;20051;-60
2023/07/18 09:53:40;;;;;;;6.18;1.70;;;20.20;99.90;;;;;;5080035;28;20523;-59
2023/07/18 09:56:07;;;;;;;6.30;1.70;;;20.00;99.90;;;;;;5079730;28;20075;-57
2023/07/18 09:58:37;;;;;;;6.20;2.00;;;19.80;99.90;;;;;;5079550;28;20105;-60
2023/07/18 10:01:10;;;;;;;7.65;1.90;;;19.90;99.90;;;;;;5079170;28;20112;-60
2023/07/18 10:03:37;;;;;;;7.72;1.80;;;20.00;99.90;;;;;;5080980;28;20047;-60
2023/07/18 10:06:12;;;;;;;8.35;2.10;;;20.00;99.90;;;;;;5078403;28;20044;-57
2023/07/18 10:08:40;;;;;;;6.13;1.55;;;20.00;99.90;;;;;;5080005;28;20044;-57
2023/07/18 10:11:11;;;;;;;5.57;1.73;;;20.00;99.90;;;;;;5080899;28;20036;-58
2023/07/18 10:14:11;;;;;;;6.88;1.85;;;20.00;99.90;;;;;;5074818;28;20428;-60
2023/07/18 10:16:41;;;;;;;7.65;1.73;;;19.90;99.90;;;;;;5068370;28;20049;-59
2023/07/18 10:19:22;;;;;;;5.75;1.63;;;20.00;99.90;;;;;;5066752;28;20036;-58
2023/07/18 10:21:51;;;;;;;8.10;1.80;;;19.90;99.90;;;;;;5060147;28;20045;-58
2023/07/18 10:24:20;;;;;;;6.40;2.00;;;20.00;99.90;;;;;;5060929;28;20041;-58
2023/07/18 10:27:09;;;;;;;6.35;1.77;;;19.90;99.90;;;;;;5058828;28;20064;-58
2023/07/18 10:29:38;;;;;;;11.05;1.83;;;19.90;99.90;;;;;;5060159;28;20104;-58
2023/07/18 10:32:08;;;;;;;8.63;1.90;;;19.90;99.90;;;;;;5059859;28;20048;-59
2023/07/18 10:34:37;;;;;;;7.57;2.05;;;20.10;99.90;;;;;;5059591;28;20069;-59
2023/07/18 10:37:07;;;;;;;5.10;2.03;;;20.00;99.90;;;;;;5060238;28;20044;-59
2023/07/18 10:39:41;;;;;;;8.60;2.03;;;20.20;99.90;;;;;;5059302;28;20056;-58
2023/07/18 10:42:08;;;;;;;8.68;2.42;;;20.30;99.90;;;;;;5063803;28;20036;-59
2023/07/18 10:44:37;;;;;;;12.30;2.00;;;20.40;99.90;;;;;;5070221;28;20317;-59
2023/07/18 10:47:17;;;;;;;11.35;2.13;;;20.50;99.90;;;;;;5064350;28;20116;-58
2023/07/18 10:49:44;;;;;;;9.32;2.47;;;20.80;99.90;;;;;;5065897;28;20067;-58
2023/07/18 10:52:10;;;;;;;10.68;2.70;;;20.90;99.90;;;;;;5078952;28;20044;-58
2023/07/18 10:54:36;;;;;;;8.65;1.80;;;21.10;99.90;;;;;;5080393;28;20105;-60
2023/07/18 10:57:03;;;;;;;7.88;1.88;;;21.50;99.90;;;;;;5079044;28;20075;-59
2023/07/18 10:59:29;;;;;;;8.98;2.78;;;21.60;99.90;;;;;;5078966;28;20044;-59
2023/07/18 11:01:59;;;;;;;8.45;2.22;;;21.90;99.90;;;;;;5079649;28;20089;-59
2023/07/18 11:04:25;;;;;;;10.00;2.25;;;21.80;99.90;;;;;;5072946;28;20048;-59
2023/07/18 11:06:55;;;;;;;8.98;1.73;;;22.00;99.90;;;;;;5060992;28;20045;-60
2023/07/18 11:09:20;;;;;;;7.60;2.33;;;21.70;99.90;;;;;;5072571;28;20037;-58
2023/07/18 11:11:47;;;;;;;8.82;2.28;;;21.90;99.90;;;;;;5061349;28;20124;-60
2023/07/18 11:14:12;;;;;;;8.48;1.98;;;22.00;99.90;;;;;;5062485;28;20037;-59
2023/07/18 11:16:38;;;;;;;10.05;2.08;;;21.90;99.90;;;;;;5068155;28;20045;-59
2023/07/18 11:19:07;;;;;;;9.43;2.38;;;21.60;99.90;;;;;;5057970;28;20024;-59
2023/07/18 11:21:35;;;;;;;7.75;2.15;;;21.40;99.90;;;;;;5060390;28;20048;-59
2023/07/18 11:24:01;;;;;;;7.75;1.85;;;21.20;99.90;;;;;;5061033;28;20048;-59
2023/07/18 11:26:27;;;;;;;6.35;1.90;;;21.90;99.90;;;;;;5058024;28;20053;-59
2023/07/18 11:28:56;;;;;;;6.00;1.70;;;22.20;99.90;;;;;;5059425;28;20140;-60
2023/07/18 11:31:26;;;;;;;5.07;1.50;;;21.90;99.90;;;;;;5058278;28;20504;-59
2023/07/18 11:33:53;;;;;;;6.53;1.80;;;22.00;99.90;;;;;;5059403;28;20075;-59
2023/07/18 11:36:21;;;;;;;8.18;1.90;;;22.00;97.10;;;;;;5059025;28;20052;-59
2023/07/18 11:38:51;;;;;;;6.57;1.70;;;22.00;98.20;;;;;;5056967;28;20061;-59
2023/07/18 11:41:40;;;;;;;8.57;1.95;;;22.40;99.90;;;;;;5059354;28;20105;-59
2023/07/18 11:44:08;;;;;;;7.82;1.60;;;22.50;99.00;;;;;;5057493;28;20106;-59
2023/07/18 11:46:44;;;;;;;8.48;1.85;;;21.90;99.90;;;;;;5063829;28;20043;-59
2023/07/18 11:49:17;;;;;;;8.30;2.55;;;22.00;99.90;;;;;;5063526;28;20035;-57
2023/07/18 11:51:43;;;;;;;7.55;2.33;;;22.40;99.90;;;;;;5061693;28;20041;-59
2023/07/18 11:54:09;;;;;;;7.25;2.03;;;21.90;99.90;;;;;;5069208;28;20049;-59
2023/07/18 11:56:35;;;;;;;6.28;2.20;;;21.70;99.90;;;;;;5064384;28;20048;-60
2023/07/18 11:59:01;;;;;;;6.60;2.15;;;21.30;99.90;;;;;;5065217;28;20044;-59
2023/07/18 12:01:27;;;;;;;8.13;2.25;;;21.20;99.90;;;;;;5067846;28;20045;-59
2023/07/18 12:03:54;;;;;;;6.30;1.70;;;20.60;99.90;;;;;;5064073;28;20076;-60
2023/07/18 12:06:21;;;;;;;6.68;2.08;;;20.40;99.90;;;;;;5070883;28;20092;-59
2023/07/18 12:08:48;;;;;;;5.75;2.15;;;20.50;99.90;;;;;;5055972;28;20048;-59
2023/07/18 12:11:14;;;;;;;5.60;2.03;;;20.50;99.90;;;;;;5068693;28;20040;-59
2023/07/18 12:13:40;;;;;;;5.82;1.98;;;20.50;99.90;;;;;;5063181;28;20118;-59
2023/07/18 12:16:06;;;;;;;7.55;2.80;;;20.50;99.90;;;;;;5070654;28;20056;-59
2023/07/18 12:18:32;;;;;;;8.18;2.65;;;20.00;99.90;;;;;;5057439;28;20033;-59
2023/07/18 12:20:58;;;;;;;5.32;1.92;;;20.10;99.90;;;;;;5058287;28;20083;-59
2023/07/18 12:23:24;;;;;;;4.75;1.88;;;20.10;99.90;;;;;;5058135;28;20066;-59
2023/07/18 12:25:49;;;;;;;16.38;4.22;;;20.10;99.90;;;;;;5057322;28;20179;-58
2023/07/18 12:28:15;;;;;;;10.18;2.72;;;20.10;99.90;;;;;;5071867;28;20051;-59
2023/07/18 12:30:41;;;;;;;6.47;1.92;;;20.00;99.90;;;;;;5076348;28;20044;-57
2023/07/18 12:33:08;;;;;;;7.50;1.75;;;20.10;99.90;;;;;;5074423;28;20040;-57
2023/07/18 12:35:33;;;;;;;5.18;1.58;;;19.90;99.90;;;;;;5074826;28;20033;-57
2023/07/18 12:37:59;;;;;;;5.95;1.90;;;19.90;99.90;;;;;;5078018;28;20503;-58
2023/07/18 12:40:25;;;;;;;7.25;1.92;;;20.10;99.90;;;;;;5077767;28;20033;-57